Terminal Aerodrome Forecast
Issued by NWS

Home | Current Version | Previous Version | Text Only | Print | Product List | Glossary Off
Versions: 1 2 3 4 5 6 7 8 9 10 11 12 13 14 15 16 17 18 19

971
FTUS43 KICT 281134
TAFCNU
TAF
KCNU 281134Z 2812/2912 20009KT P6SM SCT010
      TEMPO 2812/2814 BKN010
     FM281500 23009KT P6SM SCT025
     FM290000 18005KT P6SM SKC
      TEMPO 2908/2912 3SM BR=

USA.gov is the U.S. government's official web portal to all federal, state and local government web resources and services.